Time;durP1;ratioP1;P1;durP2;ratioP2;P2;SDS_P1;SDS_P2;PMS_P1;PMS_P2;Temp;Humidity;BMP_temperature;BMP_pressure;BME280_temperature;BME280_humidity;BME280_pressure;Samples;Min_cycle;Max_cycle;Signal;HPM_P1;HPM_P2
2023/09/11 00:02:08;;;;;;;7.37;5.03;;;;;;;26.95;39.44;99835.78;4483610;32;34326;-65
2023/09/11 00:04:36;;;;;;;8.75;4.65;;;;;;;26.95;39.44;99830.31;4484274;32;34586;-66
2023/09/11 00:07:04;;;;;;;6.60;4.55;;;;;;;26.94;39.54;99829.47;4484100;32;34125;-66
2023/09/11 00:09:31;;;;;;;7.78;4.75;;;;;;;26.94;39.57;99834.13;4484382;32;34412;-66
2023/09/11 00:11:59;;;;;;;7.12;4.37;;;;;;;26.94;39.53;99828.66;4484314;32;34054;-67
2023/09/11 00:14:27;;;;;;;7.25;5.05;;;;;;;26.94;39.52;99832.22;4484184;32;33656;-68
2023/09/11 00:16:55;;;;;;;6.87;4.60;;;;;;;26.94;39.49;99825.91;4484224;32;34148;-65
2023/09/11 00:19:23;;;;;;;7.20;4.47;;;;;;;26.93;39.38;99821.53;4481060;32;34035;-68
2023/09/11 00:21:50;;;;;;;7.35;4.07;;;;;;;26.93;39.38;99821.53;4467176;32;32264;-66
2023/09/11 00:24:17;;;;;;;8.23;4.60;;;;;;;26.93;39.35;99827.81;4468311;32;34813;-67
2023/09/11 00:26:45;;;;;;;7.05;4.60;;;;;;;26.92;39.27;99820.69;4468306;32;33714;-65
2023/09/11 00:29:13;;;;;;;7.28;4.50;;;;;;;26.92;39.27;99815.22;4468301;32;33842;-65
2023/09/11 00:31:40;;;;;;;8.85;5.00;;;;;;;26.93;39.22;99821.53;4468345;32;32789;-66
2023/09/11 00:34:08;;;;;;;6.22;4.50;;;;;;;26.92;39.21;99817.13;4468441;32;33830;-65
2023/09/11 00:36:36;;;;;;;6.50;4.43;;;;;;;26.91;39.21;99812.75;4474748;32;33977;-65
2023/09/11 00:39:03;;;;;;;7.03;4.72;;;;;;;26.91;39.23;99815.47;4484000;32;33490;-65
2023/09/11 00:41:31;;;;;;;6.22;4.60;;;;;;;26.91;39.25;99816.31;4483966;32;34060;-66
2023/09/11 00:43:59;;;;;;;6.43;4.50;;;;;;;26.90;39.22;99805.59;4483902;32;34757;-64
2023/09/11 00:46:26;;;;;;;7.37;4.78;;;;;;;26.91;39.20;99815.47;4483999;32;33831;-65
2023/09/11 00:48:55;;;;;;;7.10;4.10;;;;;;;26.90;39.26;99806.41;4469619;32;34716;-68
2023/09/11 00:51:22;;;;;;;6.93;4.10;;;;;;;26.89;39.23;99812.97;4458847;32;34423;-66
2023/09/11 00:53:50;;;;;;;7.25;4.60;;;;;;;26.90;39.23;99805.59;4468178;32;33942;-66
2023/09/11 00:56:18;;;;;;;6.47;4.37;;;;;;;26.89;39.17;99803.94;4466941;32;33630;-64
2023/09/11 00:58:45;;;;;;;7.53;4.43;;;;;;;26.88;39.18;99799.53;4466766;32;34275;-65
2023/09/11 01:01:13;;;;;;;5.93;4.40;;;;;;;26.88;39.15;99794.06;4454060;32;33892;-64
2023/09/11 01:03:40;;;;;;;9.10;4.80;;;;;;;26.88;39.08;99800.38;4466790;32;34896;-65
2023/09/11 01:06:10;;;;;;;7.82;4.37;;;;;;;26.88;38.96;99794.06;4467886;32;34753;-64
2023/09/11 01:08:37;;;;;;;7.20;4.67;;;;;;;26.86;39.00;99801.69;4480268;32;34549;-66
2023/09/11 01:11:06;;;;;;;6.55;4.53;;;;;;;26.86;39.01;99801.69;4482496;32;33345;-65
2023/09/11 01:13:33;;;;;;;7.22;4.18;;;;;;;26.86;39.06;99804.41;4483669;32;34032;-65
2023/09/11 01:16:10;;;;;;;6.57;4.20;;;;;;;26.86;39.01;99801.69;4482330;32;34728;-65
2023/09/11 01:18:50;;;;;;;8.50;4.50;;;;;;;26.84;39.09;99795.63;4470328;32;33979;-64
2023/09/11 01:21:36;;;;;;;7.20;4.93;;;;;;;26.85;39.09;99797.28;4469788;32;34194;-65
2023/09/11 01:24:16;;;;;;;7.85;4.62;;;;;;;26.85;38.99;99802.78;4483358;32;33600;-65
2023/09/11 01:27:23;;;;;;;6.47;4.28;;;;;;;26.84;39.10;99807.41;4470137;32;33845;-65
2023/09/11 01:29:51;;;;;;;5.95;4.07;;;;;;;26.85;39.05;99806.34;4483350;32;33956;-66
2023/09/11 01:32:22;;;;;;;7.50;4.50;;;;;;;26.83;38.99;99804.94;4469228;32;32377;-65
2023/09/11 01:34:50;;;;;;;8.10;4.90;;;;;;;26.82;38.97;99797.81;4482158;32;33856;-65
2023/09/11 01:37:18;;;;;;;6.45;4.80;;;;;;;26.81;38.91;99799.69;4482095;32;34726;-65
2023/09/11 01:39:45;;;;;;;9.35;5.18;;;;;;;26.82;38.88;99798.62;4482958;32;34659;-65
2023/09/11 01:42:17;;;;;;;6.60;4.47;;;;;;;26.81;38.87;99798.88;4483251;32;34277;-65
2023/09/11 01:44:46;;;;;;;7.15;4.40;;;;;;;26.80;38.87;99797.22;4469306;32;34045;-65
2023/09/11 01:47:17;;;;;;;8.35;4.60;;;;;;;26.81;38.77;99793.38;4481615;32;33660;-65
2023/09/11 01:49:44;;;;;;;;;;;;;;;26.80;38.77;99798.03;4469440;32;33921;-65
2023/09/11 01:52:12;;;;;;;7.12;4.28;;;;;;;26.89;38.53;99796.53;4481885;32;33400;-66
2023/09/11 01:54:40;;;;;;;7.68;4.90;;;;;;;26.82;38.61;99795.06;4481891;32;34629;-65
2023/09/11 01:57:07;;;;;;;7.03;4.60;;;;;;;26.79;38.67;99793.66;4468785;32;34201;-68
2023/09/11 01:59:35;;;;;;;6.05;4.15;;;;;;;26.79;38.73;99809.25;4482049;32;33559;-65
2023/09/11 02:02:03;;;;;;;5.65;4.25;;;;;;;26.77;38.87;99795.00;4468827;32;33584;-65
2023/09/11 02:04:31;;;;;;;6.75;4.35;;;;;;;26.77;38.86;99795.00;4482863;32;33937;-65
2023/09/11 02:06:58;;;;;;;8.43;4.68;;;;;;;26.78;38.84;99792.00;4483453;32;34641;-65
2023/09/11 02:09:26;;;;;;;9.77;4.87;;;;;;;26.79;38.83;99801.03;4484924;32;34724;-65
2023/09/11 02:11:53;;;;;;;8.48;4.18;;;;;;;26.77;38.81;99801.28;4485040;32;34234;-65
2023/09/11 02:14:21;;;;;;;9.27;5.05;;;;;;;26.77;38.78;99798.56;4485081;32;33736;-65
2023/09/11 02:16:49;;;;;;;6.78;4.18;;;;;;;26.76;38.74;99794.13;4485001;32;33643;-65
2023/09/11 02:19:16;;;;;;;9.43;4.97;;;;;;;26.76;38.69;99796.88;4483645;32;33524;-65
2023/09/11 02:21:44;;;;;;;9.05;4.72;;;;;;;26.76;38.69;99799.59;4485205;32;33560;-65
2023/09/11 02:24:11;;;;;;;8.15;5.05;;;;;;;26.76;38.60;99793.31;4484866;32;34120;-64
2023/09/11 02:26:39;;;;;;;6.35;4.05;;;;;;;26.75;38.55;99794.41;4485185;32;33557;-65
2023/09/11 02:29:07;;;;;;;8.40;4.32;;;;;;;26.74;38.52;99793.56;4484760;32;34531;-65
2023/09/11 02:31:34;;;;;;;7.00;4.75;;;;;;;26.72;38.42;99798.47;4484749;32;33421;-65
2023/09/11 02:34:02;;;;;;;8.00;4.40;;;;;;;26.74;38.42;99795.47;4484877;32;33597;-65
2023/09/11 02:36:29;;;;;;;7.60;4.55;;;;;;;26.71;38.42;99797.63;4484922;32;34777;-64
2023/09/11 02:38:57;;;;;;;7.78;4.95;;;;;;;26.70;38.38;99798.69;4484782;32;33634;-65
2023/09/11 02:41:25;;;;;;;7.82;4.28;;;;;;;26.69;38.35;99794.31;4484769;32;33391;-65
2023/09/11 02:43:52;;;;;;;7.93;4.78;;;;;;;26.68;38.28;99789.91;4484806;32;33852;-66
2023/09/11 02:46:20;;;;;;;9.82;4.72;;;;;;;26.68;38.30;99794.56;4484681;32;34911;-65
2023/09/11 02:48:48;;;;;;;8.75;4.87;;;;;;;26.66;38.28;99783.03;4484711;32;34821;-65
2023/09/11 02:51:17;;;;;;;7.05;5.03;;;;;;;26.67;38.31;99784.69;4484982;32;33459;-65
2023/09/11 02:53:45;;;;;;;7.68;4.37;;;;;;;26.66;38.28;99786.59;4483483;32;33501;-64
2023/09/11 02:56:12;;;;;;;6.60;4.47;;;;;;;26.65;38.25;99782.19;4484668;32;33705;-65
2023/09/11 02:58:40;;;;;;;11.05;5.00;;;;;;;26.64;38.24;99788.75;4484436;32;34586;-65
2023/09/11 03:01:09;;;;;;;6.60;4.65;;;;;;;26.63;38.20;99789.84;4484973;32;34239;-67
2023/09/11 03:03:36;;;;;;;6.47;4.68;;;;;;;26.64;38.19;99788.75;4484714;32;33794;-65
2023/09/11 03:06:04;;;;;;;7.68;4.50;;;;;;;26.63;38.21;99778.91;4484407;32;33411;-65
2023/09/11 03:08:32;;;;;;;6.35;4.43;;;;;;;26.61;38.25;99783.78;4484568;32;33921;-65
2023/09/11 03:11:07;;;;;;;9.40;5.05;;;;;;;26.60;38.24;99776.66;4484658;32;34076;-65
2023/09/11 03:13:36;;;;;;;9.32;5.00;;;;;;;26.62;38.20;99784.59;4484660;32;34700;-65
2023/09/11 03:16:14;;;;;;;6.62;4.68;;;;;;;26.60;38.20;99779.37;4484761;32;34061;-65
2023/09/11 03:18:42;;;;;;;7.55;4.80;;;;;;;26.61;38.21;99778.28;4482375;32;34812;-65
2023/09/11 03:21:10;;;;;;;7.32;4.30;;;;;;;26.59;38.19;99777.72;4483619;32;33932;-64
2023/09/11 03:23:38;;;;;;;7.85;4.65;;;;;;;26.59;38.24;99774.16;4484825;32;34616;-65
2023/09/11 03:26:13;;;;;;;6.45;4.60;;;;;;;26.58;38.22;99778.81;4484513;32;33629;-65
2023/09/11 03:28:48;;;;;;;9.48;4.60;;;;;;;26.57;38.17;99777.12;4483447;32;34521;-65
2023/09/11 03:31:16;;;;;;;7.45;4.75;;;;;;;26.57;38.20;99773.56;4484656;32;33554;-64
2023/09/11 03:33:44;;;;;;;6.90;4.40;;;;;;;26.57;38.20;99776.31;4484500;32;33824;-64
2023/09/11 03:36:16;;;;;;;7.50;5.03;;;;;;;26.56;38.19;99788.34;4484629;32;33964;-65
2023/09/11 03:38:44;;;;;;;8.02;5.20;;;;;;;26.55;38.15;99773.81;4484638;32;34811;-65
2023/09/11 03:41:12;;;;;;;8.30;5.03;;;;;;;26.56;38.12;99788.34;4483229;32;33579;-64
2023/09/11 03:43:39;;;;;;;7.68;4.55;;;;;;;26.55;38.13;99782.03;4484390;32;34605;-65
2023/09/11 03:46:08;;;;;;;6.50;4.93;;;;;;;26.55;38.07;99776.56;4483040;32;33990;-65
2023/09/11 03:48:36;;;;;;;7.12;4.57;;;;;;;26.54;38.04;99777.66;4483100;32;34700;-65
2023/09/11 03:51:05;;;;;;;10.10;5.18;;;;;;;26.54;38.05;99772.16;4484602;32;33400;-68
2023/09/11 03:53:33;;;;;;;9.13;4.37;;;;;;;26.54;38.04;99774.09;4482958;32;33807;-65
2023/09/11 03:56:01;;;;;;;9.18;4.90;;;;;;;26.54;38.05;99774.91;4484622;32;33914;-65
2023/09/11 03:58:29;;;;;;;7.87;4.60;;;;;;;26.53;38.04;99781.44;4483308;32;33891;-65
2023/09/11 04:00:57;;;;;;;7.72;4.75;;;;;;;26.52;37.99;99768.84;4484511;32;33974;-65
2023/09/11 04:03:25;;;;;;;9.65;5.70;;;;;;;26.53;38.00;99777.88;4484261;32;33916;-66
2023/09/11 04:05:53;;;;;;;7.55;4.80;;;;;;;26.51;38.05;99769.91;4484140;32;34682;-65
2023/09/11 04:08:21;;;;;;;7.30;4.65;;;;;;;26.51;38.05;99769.09;4472052;32;34784;-65
2023/09/11 04:10:49;;;;;;;8.48;5.03;;;;;;;26.51;38.00;99760.88;4468881;32;33730;-66
2023/09/11 04:13:16;;;;;;;8.90;5.00;;;;;;;26.51;38.05;99763.63;4468737;32;33803;-66
2023/09/11 04:15:44;;;;;;;7.60;4.57;;;;;;;26.50;38.05;99768.28;4467095;32;34229;-65
2023/09/11 04:18:12;;;;;;;10.48;4.50;;;;;;;26.51;38.02;99763.63;4454315;32;33850;-65
2023/09/11 04:20:39;;;;;;;7.82;4.40;;;;;;;26.50;38.02;99761.97;4468809;32;34251;-67
2023/09/11 04:23:10;;;;;;;9.82;4.80;;;;;;;26.49;38.02;99766.63;4468590;32;34577;-64
2023/09/11 04:25:38;;;;;;;8.88;4.82;;;;;;;26.49;38.09;99763.03;4468676;32;33824;-67
2023/09/11 04:28:05;;;;;;;11.10;5.00;;;;;;;26.48;38.06;99759.47;4468577;32;33806;-65
2023/09/11 04:30:33;;;;;;;7.05;4.40;;;;;;;26.47;38.08;99755.06;4468109;32;34064;-67
2023/09/11 04:33:02;;;;;;;9.32;5.40;;;;;;;26.48;38.07;99764.09;4468586;32;33795;-67
2023/09/11 04:35:30;;;;;;;8.27;4.72;;;;;;;26.47;38.03;99763.28;4468646;32;33650;-65
2023/09/11 04:37:58;;;;;;;7.65;4.85;;;;;;;26.46;38.03;99756.16;4467439;32;34707;-68
2023/09/11 04:40:26;;;;;;;6.65;4.57;;;;;;;26.46;38.05;99758.91;4468285;32;33531;-66
2023/09/11 04:42:54;;;;;;;10.77;5.18;;;;;;;26.45;38.10;99755.34;4468105;32;34006;-66
2023/09/11 04:45:22;;;;;;;8.48;5.20;;;;;;;26.44;38.06;99756.41;4466873;32;34668;-65
2023/09/11 04:47:50;;;;;;;8.68;4.57;;;;;;;26.44;38.11;99750.13;4468098;32;33897;-66
2023/09/11 04:50:17;;;;;;;7.12;5.00;;;;;;;26.44;38.10;99750.94;4468105;32;33064;-65
2023/09/11 04:52:45;;;;;;;8.07;4.95;;;;;;;26.45;38.09;99751.78;4467026;32;33934;-68
2023/09/11 04:55:13;;;;;;;8.48;5.07;;;;;;;26.45;38.12;99751.78;4475945;32;33773;-65
2023/09/11 04:57:41;;;;;;;7.32;4.50;;;;;;;26.43;38.11;99751.16;4483727;32;34023;-66
2023/09/11 05:00:13;;;;;;;12.75;5.10;;;;;;;26.43;38.15;99749.25;4483756;32;34077;-65
2023/09/11 05:02:41;;;;;;;8.35;4.90;;;;;;;26.42;38.13;99750.31;4484109;32;34768;-66
2023/09/11 05:05:09;;;;;;;9.25;4.87;;;;;;;26.43;38.13;99749.25;4483835;32;33736;-66
2023/09/11 05:07:36;;;;;;;10.02;4.85;;;;;;;26.44;38.21;99750.13;4483841;32;33659;-65
2023/09/11 05:10:08;;;;;;;14.75;4.75;;;;;;;26.43;38.21;99745.69;4483974;32;33587;-68
2023/09/11 05:12:36;;;;;;;7.72;5.00;;;;;;;26.42;38.20;99754.97;4482429;32;34054;-65
2023/09/11 05:15:04;;;;;;;10.63;5.82;;;;;;;26.43;38.17;99748.44;4482539;32;33608;-65
2023/09/11 05:17:31;;;;;;;8.70;5.70;;;;;;;26.42;38.16;99753.06;4483878;32;33213;-66
2023/09/11 05:20:06;;;;;;;9.50;5.10;;;;;;;26.43;38.23;99756.66;4483555;32;33303;-65
2023/09/11 05:22:34;;;;;;;8.77;5.20;;;;;;;26.42;38.25;99752.22;4483474;32;33971;-66
2023/09/11 05:25:02;;;;;;;9.15;4.53;;;;;;;26.42;38.27;99744.84;4483277;32;34924;-64
2023/09/11 05:27:29;;;;;;;9.73;4.87;;;;;;;26.42;38.29;99753.06;4483652;32;33558;-65
2023/09/11 05:29:57;;;;;;;7.62;4.70;;;;;;;26.42;38.32;99744.84;4483507;32;33827;-64
2023/09/11 05:32:25;;;;;;;7.78;5.03;;;;;;;26.42;38.39;99749.50;4483514;32;33893;-63
2023/09/11 05:34:53;;;;;;;10.77;5.25;;;;;;;26.42;38.48;99750.31;4483420;32;34148;-63
2023/09/11 05:37:20;;;;;;;11.88;5.20;;;;;;;26.42;38.55;99754.97;4483213;32;33793;-63
2023/09/11 05:39:48;;;;;;;14.10;5.53;;;;;;;26.42;38.54;99744.00;4483060;32;33664;-63
2023/09/11 05:42:15;;;;;;;8.45;5.10;;;;;;;26.42;38.53;99753.06;4483945;32;33984;-65
2023/09/11 05:44:43;;;;;;;8.27;4.60;;;;;;;26.41;38.54;99742.37;4485171;32;33734;-65
2023/09/11 05:47:11;;;;;;;9.50;5.22;;;;;;;26.40;38.57;99749.75;4484686;32;34121;-64
2023/09/11 05:49:38;;;;;;;8.73;5.12;;;;;;;26.41;38.62;99747.84;4484973;32;34386;-64
2023/09/11 05:52:09;;;;;;;9.25;5.18;;;;;;;26.40;38.65;99748.91;4485171;32;33485;-64
2023/09/11 05:54:36;;;;;;;13.43;5.78;;;;;;;26.40;38.67;99752.47;4485114;32;33724;-65
2023/09/11 05:57:05;;;;;;;10.10;4.95;;;;;;;26.40;38.70;99757.94;4484003;32;33476;-65
2023/09/11 05:59:33;;;;;;;7.70;5.28;;;;;;;26.40;38.74;99759.88;4471140;32;32351;-64
2023/09/11 06:02:01;;;;;;;12.55;5.65;;;;;;;26.40;38.74;99749.75;4484883;32;33950;-63
2023/09/11 06:04:30;;;;;;;10.07;4.75;;;;;;;26.40;38.88;99751.66;4485066;32;34040;-63
2023/09/11 06:06:58;;;;;;;7.97;4.93;;;;;;;26.40;38.95;99754.38;4485137;32;34575;-63
2023/09/11 06:09:26;;;;;;;9.27;5.72;;;;;;;26.41;38.98;99756.03;4484828;32;33420;-65
2023/09/11 06:11:54;;;;;;;9.60;5.00;;;;;;;26.41;38.98;99754.12;4484728;32;33882;-64
2023/09/11 06:14:22;;;;;;;8.65;4.97;;;;;;;26.40;39.01;99751.66;4480146;31;34121;-66
2023/09/11 06:16:50;;;;;;;11.27;5.00;;;;;;;26.40;39.04;99755.22;4476919;32;33545;-64
2023/09/11 06:19:18;;;;;;;9.02;5.25;;;;;;;26.40;39.12;99749.75;4484932;32;33426;-63
2023/09/11 06:21:45;;;;;;;10.68;5.78;;;;;;;26.39;39.15;99748.09;4483499;32;34687;-64
2023/09/11 06:24:14;;;;;;;8.15;4.93;;;;;;;26.40;39.15;99749.75;4484721;32;35198;-63
2023/09/11 06:26:42;;;;;;;10.57;4.75;;;;;;;26.41;39.21;99753.31;4484858;32;34583;-64
2023/09/11 06:29:10;;;;;;;10.80;5.25;;;;;;;26.40;39.22;99740.72;4483974;32;33373;-65
2023/09/11 06:31:37;;;;;;;9.43;5.03;;;;;;;26.41;39.23;99742.37;4483403;32;33554;-64
2023/09/11 06:34:05;;;;;;;10.65;5.57;;;;;;;26.41;39.26;99745.09;4481945;32;33441;-65
2023/09/11 06:36:33;;;;;;;8.60;4.90;;;;;;;26.41;39.23;99756.03;4468803;32;34433;-64
2023/09/11 06:39:01;;;;;;;11.90;5.18;;;;;;;26.40;39.25;99757.94;4484093;32;34019;-65
2023/09/11 06:41:29;;;;;;;12.30;5.18;;;;;;;26.41;39.26;99756.03;4484427;32;33856;-64
2023/09/11 06:43:57;;;;;;;9.35;5.07;;;;;;;26.40;39.26;99757.94;4483486;32;34492;-65
2023/09/11 06:46:24;;;;;;;13.20;4.78;;;;;;;26.41;39.32;99765.06;4483735;32;33299;-65
2023/09/11 06:48:52;;;;;;;11.10;5.43;;;;;;;26.42;39.33;99764.00;4483216;32;33644;-65
2023/09/11 06:51:20;;;;;;;10.32;5.07;;;;;;;26.41;39.37;99765.06;4484637;32;34743;-65
2023/09/11 06:53:48;;;;;;;10.48;5.68;;;;;;;26.42;39.41;99769.47;4484734;32;33600;-67
2023/09/11 06:56:16;;;;;;;11.25;5.32;;;;;;;26.42;39.44;99768.62;4484783;32;33930;-67
2023/09/11 06:58:45;;;;;;;7.68;4.85;;;;;;;26.43;39.47;99764.84;4484564;32;33164;-65
2023/09/11 07:01:13;;;;;;;9.75;5.00;;;;;;;26.43;39.52;99767.59;4484944;32;33830;-65
2023/09/11 07:03:41;;;;;;;9.35;5.10;;;;;;;26.43;39.53;99773.06;4483412;32;34916;-65
2023/09/11 07:06:09;;;;;;;9.52;5.10;;;;;;;26.43;39.55;99765.69;4484592;32;33492;-64
2023/09/11 07:08:36;;;;;;;8.10;5.62;;;;;;;26.42;39.57;99769.47;4484546;32;33427;-65
2023/09/11 07:11:05;;;;;;;7.18;4.72;;;;;;;26.43;39.59;99768.41;4484614;32;33413;-66
2023/09/11 07:13:32;;;;;;;11.65;4.90;;;;;;;26.44;39.64;99772.00;4484399;32;33822;-64
2023/09/11 07:16:00;;;;;;;7.45;4.90;;;;;;;26.43;39.67;99776.62;4484608;32;33947;-67
2023/09/11 07:18:28;;;;;;;8.80;5.15;;;;;;;26.44;39.67;99769.28;4470276;32;32050;-65
2023/09/11 07:20:56;;;;;;;6.70;5.10;;;;;;;26.44;39.69;99774.75;4483272;32;33522;-66
2023/09/11 07:23:24;;;;;;;11.15;5.32;;;;;;;26.45;39.76;99787.34;4483671;32;33640;-66
2023/09/11 07:25:52;;;;;;;7.97;5.30;;;;;;;26.45;39.79;99782.69;4484633;32;34150;-65
2023/09/11 07:28:20;;;;;;;11.50;5.25;;;;;;;26.45;39.78;99779.13;4484347;32;34345;-67
2023/09/11 07:30:47;;;;;;;11.15;5.35;;;;;;;26.45;39.82;99781.88;4484730;32;34054;-65
2023/09/11 07:33:15;;;;;;;8.45;5.37;;;;;;;26.45;39.85;99777.22;4484526;32;33562;-66
2023/09/11 07:35:43;;;;;;;8.60;5.80;;;;;;;26.46;39.87;99789.00;4483494;31;33945;-64
2023/09/11 07:38:11;;;;;;;8.77;5.60;;;;;;;26.46;39.97;99789.00;4485324;31;33022;-65
2023/09/11 07:40:39;;;;;;;10.82;5.85;;;;;;;26.47;40.22;99793.38;4484346;32;34096;-64
2023/09/11 07:43:06;;;;;;;9.48;5.32;;;;;;;26.47;40.26;99787.91;4468760;32;34670;-64
2023/09/11 07:45:34;;;;;;;12.27;5.95;;;;;;;26.49;40.32;99788.50;4468938;32;34547;-64
2023/09/11 07:48:02;;;;;;;14.30;5.78;;;;;;;26.49;40.44;99783.03;4477860;32;33278;-64
2023/09/11 07:50:29;;;;;;;10.98;5.75;;;;;;;26.51;40.60;99788.25;4484037;32;34371;-64
2023/09/11 07:52:57;;;;;;;8.93;5.93;;;;;;;26.51;40.75;99789.06;4484326;32;34724;-64
2023/09/11 07:55:25;;;;;;;12.23;5.57;;;;;;;26.53;40.85;99791.56;4474875;32;34005;-67
2023/09/11 07:57:57;;;;;;;8.87;6.07;;;;;;;26.53;41.09;99786.91;4468831;32;33192;-63
2023/09/11 08:00:30;;;;;;;10.73;5.70;;;;;;;26.56;41.28;99786.41;4480523;32;34889;-64
2023/09/11 08:02:58;;;;;;;12.25;6.43;;;;;;;26.55;41.24;99782.03;4484094;32;33638;-64
2023/09/11 08:05:26;;;;;;;13.02;6.07;;;;;;;26.56;41.33;99777.38;4483682;32;34129;-64
2023/09/11 08:07:53;;;;;;;8.30;5.87;;;;;;;26.57;41.30;99781.78;4484327;32;34390;-64
2023/09/11 08:10:21;;;;;;;12.02;5.72;;;;;;;26.57;41.30;99776.31;4484036;32;33886;-65
2023/09/11 08:12:49;;;;;;;9.52;5.85;;;;;;;26.59;41.42;99782.38;4484277;32;34393;-64
2023/09/11 08:15:16;;;;;;;12.40;5.82;;;;;;;26.58;41.46;99778.81;4481673;32;34139;-65
2023/09/11 08:17:44;;;;;;;10.95;5.90;;;;;;;26.60;41.62;99775.81;4480631;32;34293;-64
2023/09/11 08:20:28;;;;;;;12.70;5.75;;;;;;;26.61;41.68;99769.25;4484272;32;33775;-66
2023/09/11 08:22:58;;;;;;;10.60;5.57;;;;;;;26.63;42.06;99773.41;4483943;32;33854;-66
2023/09/11 08:25:25;;;;;;;13.52;6.15;;;;;;;26.66;42.28;99774.81;4483354;32;33625;-67
2023/09/11 08:27:54;;;;;;;8.90;5.90;;;;;;;26.67;42.42;99776.47;4484150;32;34198;-65
2023/09/11 08:30:22;;;;;;;9.52;5.72;;;;;;;26.69;42.88;99777.91;4483931;32;33861;-68
2023/09/11 08:32:49;;;;;;;12.37;5.68;;;;;;;26.69;42.84;99769.69;4478168;32;33895;-65
2023/09/11 08:35:17;;;;;;;9.82;6.03;;;;;;;26.73;43.03;99766.47;4468412;32;34595;-64
2023/09/11 08:37:45;;;;;;;11.85;6.32;;;;;;;26.72;43.13;99771.09;4468306;32;33990;-64
2023/09/11 08:40:12;;;;;;;10.82;6.25;;;;;;;26.73;43.27;99761.81;4468239;32;33923;-66
2023/09/11 08:42:40;;;;;;;12.13;6.47;;;;;;;26.76;43.42;99758.56;4471194;32;34033;-64
2023/09/11 08:45:07;;;;;;;17.90;6.60;;;;;;;26.77;43.35;99770.34;4483861;32;34489;-66
2023/09/11 08:47:35;;;;;;;11.65;6.57;;;;;;;26.80;43.26;99756.16;4483913;32;34230;-64
2023/09/11 08:50:04;;;;;;;13.18;6.12;;;;;;;26.81;43.18;99760.53;4482629;32;34653;-67
2023/09/11 08:52:33;;;;;;;;;;;;;;;26.83;43.11;99756.47;4482899;32;34833;-67
2023/09/11 08:55:04;;;;;;;12.20;6.50;;;;;;;26.94;42.65;99754.72;4483982;32;34519;-67
2023/09/11 08:57:32;;;;;;;11.98;6.37;;;;;;;26.85;42.74;99758.97;4482625;32;33066;-65
2023/09/11 09:00:08;;;;;;;12.02;5.72;;;;;;;26.84;42.74;99751.84;4483821;32;34466;-64
2023/09/11 09:02:36;;;;;;;12.20;5.95;;;;;;;26.86;42.75;99756.00;4470149;32;33939;-67
2023/09/11 09:05:04;;;;;;;10.55;5.87;;;;;;;26.86;42.47;99747.78;4483548;32;33735;-65
2023/09/11 09:07:32;;;;;;;10.27;5.57;;;;;;;26.88;42.28;99750.25;4469625;32;33688;-66
2023/09/11 09:10:00;;;;;;;9.35;6.10;;;;;;;26.91;41.73;99749.78;4482397;32;33462;-66
2023/09/11 09:12:27;;;;;;;12.55;6.85;;;;;;;26.92;41.69;99754.16;4482233;32;33794;-66
2023/09/11 09:14:55;;;;;;;13.48;5.68;;;;;;;26.92;41.50;99751.41;4469603;32;33920;-65
2023/09/11 09:17:23;;;;;;;11.35;5.45;;;;;;;26.92;41.45;99748.69;4480422;32;33545;-63
2023/09/11 09:19:52;;;;;;;10.53;5.57;;;;;;;26.91;41.42;99749.78;4482179;32;33352;-67
2023/09/11 09:22:19;;;;;;;9.60;5.40;;;;;;;26.93;41.36;99747.59;4483565;32;34008;-68
2023/09/11 09:24:48;;;;;;;10.18;5.40;;;;;;;26.93;41.32;99747.59;4482396;32;33898;-67
2023/09/11 09:27:16;;;;;;;10.07;5.50;;;;;;;26.91;41.30;99747.84;4483437;32;32989;-65
2023/09/11 09:29:44;;;;;;;9.48;6.05;;;;;;;26.94;41.16;99750.06;4481949;32;34338;-64
2023/09/11 09:32:12;;;;;;;12.93;5.62;;;;;;;26.93;41.14;99745.69;4483395;32;33667;-64
2023/09/11 09:34:58;;;;;;;12.18;5.57;;;;;;;26.93;41.13;99739.38;4483280;32;34749;-65
2023/09/11 09:37:25;;;;;;;10.57;5.60;;;;;;;26.97;41.10;99743.28;4469063;32;33337;-66
2023/09/11 09:39:53;;;;;;;13.50;5.97;;;;;;;26.96;41.11;99738.88;4481717;32;33802;-65
2023/09/11 09:42:21;;;;;;;10.30;5.93;;;;;;;26.96;41.12;99741.63;4467594;32;33981;-66
2023/09/11 09:44:52;;;;;;;10.18;5.60;;;;;;;26.96;41.11;99734.25;4466236;32;33919;-65
2023/09/11 09:47:21;;;;;;;10.05;4.93;;;;;;;26.97;41.11;99735.06;4467254;32;33571;-65
2023/09/11 09:49:50;;;;;;;7.93;5.18;;;;;;;26.99;41.04;99734.81;4466257;32;33818;-64
2023/09/11 09:52:18;;;;;;;12.73;5.12;;;;;;;27.02;40.85;99734.31;4468359;32;33528;-63
2023/09/11 09:54:49;;;;;;;11.45;5.90;;;;;;;27.01;40.69;99728.00;4481726;32;33871;-64
2023/09/11 09:57:19;;;;;;;10.13;5.75;;;;;;;27.03;40.44;99720.34;4479478;32;33121;-63
2023/09/11 09:59:57;;;;;;;7.85;5.00;;;;;;;27.03;40.40;99720.34;4465935;32;33924;-63
2023/09/11 10:02:29;;;;;;;10.18;5.53;;;;;;;27.05;40.32;99720.13;4467177;32;33807;-65
2023/09/11 10:04:58;;;;;;;10.52;6.05;;;;;;;27.11;40.00;99713.66;4470333;32;34582;-65
2023/09/11 10:07:37;;;;;;;12.95;5.82;;;;;;;27.14;39.81;99719.47;4478877;32;33403;-64
2023/09/11 10:10:25;;;;;;;11.30;5.87;;;;;;;27.14;39.88;99707.66;4482805;32;33977;-65
2023/09/11 10:13:07;;;;;;;9.90;5.62;;;;;;;27.16;40.02;99703.59;4482809;32;33718;-64
2023/09/11 10:15:36;;;;;;;10.60;5.82;;;;;;;27.15;40.09;99710.16;4481430;32;34772;-66
2023/09/11 10:18:05;;;;;;;11.98;6.35;;;;;;;27.13;40.15;99704.09;4468856;32;33575;-68
2023/09/11 10:20:33;;;;;;;11.57;6.28;;;;;;;27.16;40.11;99694.53;4455821;32;34646;-67
2023/09/11 10:23:03;;;;;;;10.75;6.00;;;;;;;27.18;39.90;99695.94;4468490;32;33752;-68
2023/09/11 10:25:37;;;;;;;8.30;5.57;;;;;;;27.18;39.89;99695.09;4465590;32;32697;-67
2023/09/11 10:28:45;;;;;;;11.12;5.70;;;;;;;27.18;39.89;99687.72;4466453;32;33092;-68
2023/09/11 10:31:15;;;;;;;10.13;6.07;;;;;;;27.17;39.93;99686.06;4420385;32;33834;-68
2023/09/11 10:33:46;;;;;;;8.98;5.80;;;;;;;27.16;39.96;99675.38;4465419;32;33431;-69
2023/09/11 10:36:14;;;;;;;8.95;5.30;;;;;;;27.16;40.03;99678.12;4483668;32;34617;-69
2023/09/11 10:38:43;;;;;;;12.30;5.62;;;;;;;27.16;40.07;99680.84;4483582;32;33460;-68
2023/09/11 10:41:11;;;;;;;11.95;5.72;;;;;;;27.16;39.98;99670.72;4458296;32;33851;-68
2023/09/11 10:43:38;;;;;;;11.32;6.18;;;;;;;27.19;39.89;99666.66;4483733;32;34355;-69
2023/09/11 10:46:17;;;;;;;10.15;6.03;;;;;;;27.14;39.97;99666.56;4482867;31;34978;-68
2023/09/11 10:48:45;;;;;;;10.95;5.80;;;;;;;27.12;39.99;99664.09;4480535;31;34366;-68
2023/09/11 10:51:13;;;;;;;8.52;5.85;;;;;;;27.12;40.01;99672.31;4462859;32;33910;-68
2023/09/11 10:53:42;;;;;;;12.18;6.28;;;;;;;27.11;39.97;99670.66;4454974;32;33663;-68
2023/09/11 10:56:10;;;;;;;10.65;6.00;;;;;;;27.09;40.00;99667.38;4477660;32;33871;-68
2023/09/11 10:58:38;;;;;;;12.60;5.72;;;;;;;27.11;40.01;99667.94;4470555;32;33256;-68
2023/09/11 11:01:06;;;;;;;12.60;6.22;;;;;;;27.09;40.08;99666.50;4483515;32;34282;-68
2023/09/11 11:03:35;;;;;;;8.77;5.70;;;;;;;27.09;40.09;99656.41;4458610;31;32999;-68
2023/09/11 11:06:06;;;;;;;11.55;5.95;;;;;;;27.07;40.08;99653.03;4478029;32;34552;-68
2023/09/11 11:08:34;;;;;;;8.57;5.62;;;;;;;27.09;40.09;99650.94;4484731;32;33446;-68
2023/09/11 11:11:02;;;;;;;8.73;5.82;;;;;;;27.08;40.08;99660.19;4483071;32;34277;-67
2023/09/11 11:13:30;;;;;;;10.70;6.30;;;;;;;27.10;40.08;99657.22;4483247;32;33523;-67
2023/09/11 11:16:20;;;;;;;10.13;5.57;;;;;;;27.08;40.12;99660.19;4483421;32;33628;-67
2023/09/11 11:18:47;;;;;;;10.13;5.18;;;;;;;27.08;40.08;99648.41;4484632;32;33341;-67
2023/09/11 11:21:16;;;;;;;10.70;5.90;;;;;;;27.05;40.06;99649.75;4457573;32;33929;-66
2023/09/11 11:24:04;;;;;;;8.93;5.78;;;;;;;27.07;40.00;99652.22;4482574;32;34697;-67
2023/09/11 11:26:35;;;;;;;11.73;5.53;;;;;;;27.09;39.77;99650.06;4483369;32;32850;-67
2023/09/11 11:29:03;;;;;;;7.78;5.78;;;;;;;27.06;39.79;99658.78;4484460;31;32353;-67
2023/09/11 11:31:31;;;;;;;9.93;5.82;;;;;;;27.03;39.85;99654.62;4483118;32;33879;-67
2023/09/11 11:34:01;;;;;;;10.68;5.50;;;;;;;27.04;39.84;99650.81;4470726;32;33903;-67
2023/09/11 11:36:30;;;;;;;10.48;5.80;;;;;;;27.03;39.72;99646.41;4470099;32;34215;-67
2023/09/11 11:38:59;;;;;;;8.18;5.32;;;;;;;27.06;39.58;99645.09;4483496;32;33151;-67
2023/09/11 11:41:27;;;;;;;7.12;5.18;;;;;;;27.04;39.65;99631.62;4476740;32;33903;-68